Minot International Airport

Airport
ICAO code: 
KMOT
Summary
ICAO Region: 
NAM
Territory: 
Location: 
Minot, North Dakota,
Coordinates: 
Aerial View: 
48° 15' 33.001" N, 101° 16' 49.001" W
Airport CFIT: 
Altimeter Temperature Error Correction
Airport GND: 
Aircraft Ground De/Anti Icing
Airport RE: 
Landing on Contaminated Runways
Airport WX: 
Cumulonimbus
Metar
Observation
KMOT 020854Z AUTO 26010KT 10SM OVC095 06/M03 A2984 RMK AO2 SLP113 T00561033 53022
Station
Minot, Minot International Airport
Date/Time
2021-12-02 08:54:00
Wind direction
260°
Wind speed
10 kts
Lowest cloud amount
overcast
Temperature
5.6°C
Dew point
-3.3°C
Humidity
52%
Weather condition
n/a

Description

Minot International Airport is a public airport located 3 km north of the central business district of Minot, a city in Ward County, North Dakota.

Climatology

Humid Continental climate (Köppen climate classification Dfb) - Variable weather patterns and a large seasonal temperature variance. Summers are often warm and humid with frequent thunderstorms and winters can be very cold with frequent snowfall and persistent snow cover.

Runways

Designator Length Width Surface Rops
8/26 1935 30 ASP Yes/Yes
13/31 2347 46 CON Yes/Yes
Airport map: 
Aerial View: 

SKYbrary Partners:

Safety knowledge contributed by: